الصفحة الرئيسية
METAR-TAF:

METAR-TAF

مطار :

Red Cliff Pass

Copper Mountain, كولورادو, الولايات المتحدة

دائرة عرض: 39-28-02N, خط طول: 106-09-01W, ارتفاع: 3680 متر

مراقبة الطقس الحالي

تاريخ ووقت الإصدار 22 دقيقة قبل الساعة 04:30UTC
ريح 9 عقدة من الغرب
درجة الحرارة 15°درجة مئوية
الرطوبة 41%
ضغط 1041 hPa
الرؤية: 16.1 كم
سماء صافية

METAR: KCCU 180430Z AUTO 27009KT 10SM CLR 15/02 A3073 RMK AO2

زمن: 22:52 (04:52 UTC)


TAF: مفقودة

أرصاد الطقس والتوقعات من أكثر من 4000 مطار (تقارير الطقس للمطار METAR والتنبؤ بالطقس بالمطارTAF).

المحطات المتاحة هي النقط الصفراء والحمراء على الخريطة.

حرك المؤشر فوق النقطة لمعرفة اسم المحطة.

ثم انقر لمعرفة أرصاد وتوقعات الطقس.

لتغيير الخارطة: اضغط على الأزرار الخضراء مع رمز الصليب الأسود للتكبير. على الزر الأخضر مع شرطة للتصغير، أو على الأسهم الخضراء للخرائط المجاورة.


METAR-TAF: